createdAt,value
2018-07-25T00:01:18.308Z,22.74
2018-07-25T00:03:45.437Z,22.74
2018-07-25T00:06:12.544Z,22.70
2018-07-25T00:08:39.785Z,22.65
2018-07-25T00:11:06.955Z,22.65
2018-07-25T00:13:33.952Z,22.55
2018-07-25T00:16:00.949Z,22.61
2018-07-25T00:18:28.475Z,22.62
2018-07-25T00:20:55.608Z,22.65
2018-07-25T00:23:22.623Z,22.69
2018-07-25T00:25:49.721Z,22.62
2018-07-25T00:28:16.805Z,22.60
2018-07-25T00:30:43.802Z,22.58
2018-07-25T00:33:10.796Z,22.52
2018-07-25T00:35:37.788Z,22.52
2018-07-25T00:38:04.889Z,22.50
2018-07-25T00:40:31.897Z,22.54
2018-07-25T00:42:59.142Z,22.46
2018-07-25T00:45:26.223Z,22.48
2018-07-25T00:47:53.242Z,22.49
2018-07-25T00:50:20.332Z,22.53
2018-07-25T00:52:47.527Z,22.46
2018-07-25T00:55:14.623Z,22.51
2018-07-25T00:57:41.611Z,22.58
2018-07-25T01:00:08.625Z,22.51
2018-07-25T01:02:35.703Z,22.42
2018-07-25T01:05:02.752Z,22.38
2018-07-25T01:07:31.042Z,22.37
2018-07-25T01:09:58.069Z,22.27
2018-07-25T01:12:25.088Z,22.35
2018-07-25T01:14:52.098Z,22.26
2018-07-25T01:17:19.348Z,22.30
2018-07-25T01:19:46.384Z,22.34
2018-07-25T01:22:13.385Z,22.30
2018-07-25T01:24:40.492Z,22.22
2018-07-25T01:27:07.496Z,22.29
2018-07-25T01:29:34.518Z,22.34
2018-07-25T01:32:01.516Z,22.30
2018-07-25T01:34:28.501Z,22.25
2018-07-25T01:36:55.497Z,22.20
2018-07-25T01:39:22.493Z,22.21
2018-07-25T01:41:49.496Z,22.21
2018-07-25T01:44:16.495Z,22.22
2018-07-25T01:46:43.487Z,22.17
2018-07-25T01:49:10.480Z,22.21
2018-07-25T01:51:37.504Z,22.15
2018-07-25T01:54:04.584Z,22.26
2018-07-25T01:56:31.757Z,22.23
2018-07-25T01:58:58.844Z,22.11
2018-07-25T02:01:25.871Z,22.02
2018-07-25T02:03:52.886Z,21.97
2018-07-25T02:06:22.739Z,21.96
2018-07-25T02:08:50.211Z,21.92
2018-07-25T02:11:17.280Z,21.90
2018-07-25T02:13:44.291Z,21.79
2018-07-25T02:16:11.329Z,21.74
2018-07-25T02:18:38.353Z,21.74
2018-07-25T02:21:05.541Z,21.77
2018-07-25T02:23:32.652Z,21.72
2018-07-25T02:25:59.669Z,21.68
2018-07-25T02:28:26.682Z,21.64
2018-07-25T02:30:53.692Z,21.53
2018-07-25T02:33:25.286Z,21.49
2018-07-25T02:35:52.356Z,21.44
2018-07-25T02:38:19.357Z,21.42
2018-07-25T02:40:46.389Z,21.44
2018-07-25T02:43:13.385Z,21.44
2018-07-25T02:45:45.953Z,21.44
2018-07-25T02:48:13.603Z,21.44
2018-07-25T02:50:40.607Z,21.42
2018-07-25T02:53:07.656Z,21.44
2018-07-25T02:55:34.849Z,21.48
2018-07-25T02:58:01.843Z,21.42
2018-07-25T03:00:28.857Z,21.40
2018-07-25T03:02:55.870Z,21.34
2018-07-25T03:05:22.872Z,21.27
2018-07-25T03:07:49.901Z,21.32
2018-07-25T03:10:16.946Z,21.35
2018-07-25T03:12:43.947Z,21.38
2018-07-25T03:15:10.977Z,21.38
2018-07-25T03:17:37.965Z,21.38
2018-07-25T03:20:05.219Z,21.39
2018-07-25T03:22:32.301Z,21.49
2018-07-25T03:24:59.306Z,21.43
2018-07-25T03:27:26.303Z,21.33
2018-07-25T03:29:53.297Z,21.54
2018-07-25T03:32:20.280Z,21.57
2018-07-25T03:34:47.337Z,21.40
2018-07-25T03:37:14.342Z,21.38
2018-07-25T03:39:41.997Z,21.54
2018-07-25T03:42:09.020Z,21.43
2018-07-25T03:44:36.016Z,21.39
2018-07-25T03:47:12.808Z,21.55
2018-07-25T03:49:39.805Z,21.55
2018-07-25T03:52:06.855Z,21.22
2018-07-25T03:54:33.929Z,21.07
2018-07-25T03:57:00.968Z,21.10
2018-07-25T03:59:27.999Z,21.13
2018-07-25T04:01:55.066Z,21.20
2018-07-25T04:04:22.164Z,21.25
2018-07-25T04:06:49.869Z,21.18
2018-07-25T04:09:16.995Z,21.16
2018-07-25T04:11:44.056Z,21.16
2018-07-25T04:14:11.118Z,21.19
2018-07-25T04:16:38.105Z,21.34
2018-07-25T04:19:05.104Z,21.38
2018-07-25T04:21:32.112Z,21.44
2018-07-25T04:23:59.109Z,21.45
2018-07-25T04:26:26.141Z,21.49
2018-07-25T04:28:53.209Z,21.51
2018-07-25T04:31:20.201Z,21.53
2018-07-25T04:33:47.211Z,21.56
2018-07-25T04:36:14.224Z,21.59
2018-07-25T04:38:41.296Z,21.65
2018-07-25T04:41:08.311Z,21.69
2018-07-25T04:43:35.683Z,21.77
2018-07-25T04:46:02.748Z,21.82
2018-07-25T04:48:29.805Z,21.85
2018-07-25T04:50:56.912Z,21.85
2018-07-25T04:55:50.407Z,22.00
2018-07-25T04:58:17.447Z,22.08
2018-07-25T05:00:44.511Z,22.11
2018-07-25T05:03:11.509Z,22.17
2018-07-25T05:05:38.648Z,22.21
2018-07-25T05:08:06.240Z,22.23
2018-07-25T05:10:33.227Z,22.26
2018-07-25T05:13:00.479Z,22.26
2018-07-25T05:15:27.456Z,22.27
2018-07-25T05:17:54.498Z,22.32
2018-07-25T05:20:22.480Z,22.31
2018-07-25T05:22:49.487Z,22.32
2018-07-25T05:25:16.571Z,22.30
2018-07-25T05:27:43.584Z,22.36
2018-07-25T05:30:10.600Z,22.35
2018-07-25T05:32:37.749Z,22.38
2018-07-25T05:35:04.949Z,22.49
2018-07-25T05:37:31.956Z,22.56
2018-07-25T05:39:59.056Z,22.62
2018-07-25T05:42:26.197Z,22.65
2018-07-25T05:44:53.241Z,22.73
2018-07-25T05:47:20.300Z,22.85
2018-07-25T05:49:47.303Z,22.97
2018-07-25T05:52:14.318Z,23.10
2018-07-25T05:54:41.324Z,23.22
2018-07-25T05:57:08.727Z,23.28
2018-07-25T05:59:35.797Z,23.34
2018-07-25T06:02:02.968Z,23.44
2018-07-25T06:04:30.060Z,23.50
2018-07-25T06:06:57.137Z,23.58
2018-07-25T06:09:24.146Z,23.68
2018-07-25T06:11:51.208Z,23.78
2018-07-25T06:14:18.329Z,23.88
2018-07-25T06:16:45.328Z,23.92
2018-07-25T06:19:12.348Z,24.00
2018-07-25T06:21:39.396Z,24.09
2018-07-25T06:24:06.425Z,24.22
2018-07-25T06:26:33.511Z,24.25
2018-07-25T06:29:00.536Z,24.34
2018-07-25T06:31:27.718Z,24.46
2018-07-25T06:33:54.729Z,24.54
2018-07-25T06:36:22.026Z,24.58
2018-07-25T06:38:49.013Z,24.59
2018-07-25T06:41:16.184Z,24.70
2018-07-25T06:43:43.595Z,24.76
2018-07-25T06:46:10.582Z,24.81
2018-07-25T06:48:37.564Z,24.84
2018-07-25T06:51:04.866Z,24.92
2018-07-25T06:53:31.917Z,24.88
2018-07-25T06:56:01.500Z,24.86
2018-07-25T06:58:30.296Z,24.95
2018-07-25T07:00:57.420Z,25.07
2018-07-25T07:03:24.548Z,25.16
2018-07-25T07:05:51.696Z,25.26
2018-07-25T07:08:18.864Z,25.37
2018-07-25T07:10:45.956Z,25.45
2018-07-25T07:13:12.992Z,25.52
2018-07-25T07:15:40.085Z,25.60
2018-07-25T07:18:07.121Z,25.78
2018-07-25T07:20:34.487Z,25.83
2018-07-25T07:23:01.501Z,25.89
2018-07-25T07:25:28.494Z,26.06
2018-07-25T07:27:55.479Z,26.28
2018-07-25T07:30:22.777Z,26.38
2018-07-25T07:32:49.850Z,26.30
2018-07-25T07:35:16.928Z,26.42
2018-07-25T07:37:44.069Z,26.55
2018-07-25T07:40:11.129Z,26.56
2018-07-25T07:42:38.597Z,26.60
2018-07-25T07:45:06.781Z,26.60
2018-07-25T07:47:33.909Z,27.00
2018-07-25T07:50:00.995Z,27.08
2018-07-25T07:52:28.056Z,27.18
2018-07-25T07:54:55.060Z,27.19
2018-07-25T07:57:22.168Z,27.22
2018-07-25T07:59:49.212Z,27.57
2018-07-25T08:02:16.259Z,27.48
2018-07-25T08:04:43.244Z,27.54
2018-07-25T08:07:10.372Z,27.80
2018-07-25T08:09:37.464Z,27.91
2018-07-25T08:12:04.484Z,28.11
2018-07-25T08:14:31.645Z,28.10
2018-07-25T08:16:58.652Z,28.07
2018-07-25T08:19:25.648Z,28.09
2018-07-25T08:21:52.733Z,28.15
2018-07-25T08:24:19.768Z,28.29
2018-07-25T08:26:46.772Z,28.46
2018-07-25T08:29:13.793Z,28.60
2018-07-25T08:31:40.817Z,28.71
2018-07-25T08:34:07.847Z,28.95
2018-07-25T08:36:34.936Z,28.75
2018-07-25T08:39:02.006Z,28.83
2018-07-25T08:41:29.025Z,28.92
2018-07-25T08:43:56.120Z,28.81
2018-07-25T08:46:23.288Z,29.12
2018-07-25T08:48:50.276Z,29.19
2018-07-25T08:51:17.373Z,29.27
2018-07-25T08:53:44.454Z,29.13
2018-07-25T08:56:11.489Z,29.25
2018-07-25T08:58:38.823Z,29.29
2018-07-25T09:01:05.977Z,29.38
2018-07-25T09:03:33.059Z,29.57
2018-07-25T09:06:00.152Z,29.52
2018-07-25T09:08:27.181Z,29.67
2018-07-25T09:10:54.322Z,29.68
2018-07-25T09:13:21.396Z,29.65
2018-07-25T09:15:48.422Z,29.67
2018-07-25T09:18:15.479Z,29.71
2018-07-25T09:20:42.636Z,29.84
2018-07-25T09:23:09.763Z,29.92
2018-07-25T09:25:37.233Z,29.98
2018-07-25T09:28:04.489Z,29.97
2018-07-25T09:30:32.093Z,29.93
2018-07-25T09:32:59.141Z,30.06
2018-07-25T09:35:26.253Z,30.18
2018-07-25T09:37:53.284Z,30.14
2018-07-25T09:40:20.361Z,30.06
2018-07-25T09:42:47.489Z,30.31
2018-07-25T09:45:14.656Z,30.33
2018-07-25T09:47:41.785Z,30.35
2018-07-25T09:50:09.493Z,30.37
2018-07-25T09:52:37.449Z,30.52
2018-07-25T09:55:05.202Z,30.59
2018-07-25T09:57:32.325Z,30.44
2018-07-25T09:59:59.928Z,30.44
2018-07-25T10:02:26.961Z,30.36
2018-07-25T10:04:53.997Z,30.58
2018-07-25T10:07:21.063Z,30.69
2018-07-25T10:09:48.071Z,30.67
2018-07-25T10:12:15.140Z,30.70
2018-07-25T10:14:42.515Z,30.93
2018-07-25T10:17:09.627Z,31.05
2018-07-25T10:19:36.730Z,31.11
2018-07-25T10:22:03.821Z,31.23
2018-07-25T10:24:30.862Z,31.06
2018-07-25T10:26:58.061Z,31.12
2018-07-25T10:29:25.126Z,31.27
2018-07-25T10:31:52.164Z,31.33
2018-07-25T10:34:19.197Z,31.57
2018-07-25T10:36:46.241Z,31.83
2018-07-25T10:39:13.262Z,31.87
2018-07-25T10:41:40.647Z,31.32
2018-07-25T10:44:07.668Z,31.32
2018-07-25T10:46:34.832Z,31.63
2018-07-25T10:49:01.984Z,31.83
2018-07-25T10:51:29.008Z,31.93
2018-07-25T10:53:56.276Z,32.05
2018-07-25T10:56:23.369Z,31.89
2018-07-25T10:58:50.376Z,31.81
2018-07-25T11:01:17.383Z,31.79
2018-07-25T11:03:44.492Z,32.06
2018-07-25T11:06:11.521Z,32.29
2018-07-25T11:08:38.536Z,32.29
2018-07-25T11:11:05.878Z,32.11
2018-07-25T11:13:32.885Z,31.94
2018-07-25T11:16:00.101Z,31.99
2018-07-25T11:18:27.127Z,31.85
2018-07-25T11:20:54.236Z,31.95
2018-07-25T11:23:21.294Z,32.23
2018-07-25T11:25:48.319Z,32.33
2018-07-25T11:28:15.408Z,32.35
2018-07-25T11:30:42.427Z,32.38
2018-07-25T11:33:09.424Z,32.30
2018-07-25T11:35:36.452Z,32.23
2018-07-25T11:38:03.526Z,32.02
2018-07-25T11:40:30.630Z,31.80
2018-07-25T11:42:57.624Z,31.66
2018-07-25T11:45:24.725Z,31.74
2018-07-25T11:47:51.737Z,31.95
2018-07-25T11:50:18.830Z,32.10
2018-07-25T11:52:45.865Z,32.06
2018-07-25T11:55:13.066Z,31.96
2018-07-25T11:57:40.052Z,31.81
2018-07-25T12:00:07.517Z,31.69
2018-07-25T12:02:34.564Z,31.67
2018-07-25T12:05:01.602Z,31.60
2018-07-25T12:07:28.767Z,31.63
2018-07-25T12:09:55.860Z,31.87
2018-07-25T12:12:23.011Z,31.99
2018-07-25T12:14:50.068Z,32.17
2018-07-25T12:17:17.172Z,32.39
2018-07-25T12:19:44.297Z,32.60
2018-07-25T12:22:11.412Z,33.19
2018-07-25T12:24:38.552Z,33.51
2018-07-25T12:27:05.651Z,33.72
2018-07-25T12:29:32.680Z,33.88
2018-07-25T12:31:59.919Z,33.71
2018-07-25T12:34:26.917Z,34.13
2018-07-25T12:36:54.018Z,34.49
2018-07-25T12:39:20.974Z,34.65
2018-07-25T12:41:47.996Z,34.51
2018-07-25T12:44:15.414Z,34.66
2018-07-25T12:46:42.448Z,34.63
2018-07-25T12:49:09.516Z,34.94
2018-07-25T12:51:36.598Z,35.63
2018-07-25T12:54:03.889Z,35.25
2018-07-25T12:56:30.742Z,35.41
2018-07-25T12:58:57.783Z,35.58
2018-07-25T13:01:24.977Z,36.01
2018-07-25T13:03:52.077Z,36.29
2018-07-25T13:06:19.189Z,36.74
2018-07-25T13:08:46.375Z,37.22
2018-07-25T13:11:13.920Z,35.89
2018-07-25T13:13:40.996Z,35.38
2018-07-25T13:16:08.036Z,34.87
2018-07-25T13:18:35.126Z,34.39
2018-07-25T13:21:02.531Z,34.43
2018-07-25T13:23:29.644Z,34.85
2018-07-25T13:25:57.589Z,34.77
2018-07-25T13:28:24.955Z,34.45
2018-07-25T13:30:51.984Z,34.11
2018-07-25T13:33:19.985Z,34.14
2018-07-25T13:35:47.121Z,33.81
2018-07-25T13:38:14.205Z,33.69
2018-07-25T13:40:41.727Z,33.34
2018-07-25T13:43:09.040Z,33.71
2018-07-25T13:45:37.014Z,34.59
2018-07-25T13:48:04.212Z,35.45
2018-07-25T13:50:31.253Z,35.51
2018-07-25T13:52:58.378Z,35.01
2018-07-25T13:55:25.428Z,34.32
2018-07-25T13:57:52.704Z,34.07
2018-07-25T14:00:19.725Z,33.81
2018-07-25T14:02:46.912Z,33.43
2018-07-25T14:05:14.079Z,33.16
2018-07-25T14:07:41.204Z,33.14
2018-07-25T14:10:08.302Z,32.87
2018-07-25T14:12:35.488Z,32.71
2018-07-25T14:15:02.588Z,32.19
2018-07-25T14:17:29.893Z,31.95
2018-07-25T14:19:56.934Z,31.85
2018-07-25T14:22:24.204Z,31.66
2018-07-25T14:24:51.233Z,31.52
2018-07-25T14:27:18.732Z,31.36
2018-07-25T14:29:45.726Z,30.73
2018-07-25T14:32:12.820Z,29.42
2018-07-25T14:34:39.898Z,28.37
2018-07-25T14:37:06.893Z,26.54
2018-07-25T14:39:34.282Z,25.29
2018-07-25T14:42:01.440Z,25.09
2018-07-25T14:44:28.544Z,24.58
2018-07-25T14:46:55.702Z,24.40
2018-07-25T14:49:22.894Z,24.15
2018-07-25T14:51:50.025Z,23.26
2018-07-25T14:54:17.191Z,22.50
2018-07-25T14:56:44.267Z,22.48
2018-07-25T14:59:11.340Z,22.29
2018-07-25T15:01:38.417Z,22.00
2018-07-25T15:04:05.748Z,21.89
2018-07-25T15:06:33.060Z,21.79
2018-07-25T15:09:00.358Z,21.54
2018-07-25T15:11:27.378Z,21.41
2018-07-25T15:13:54.450Z,21.44
2018-07-25T15:16:21.577Z,21.37
2018-07-25T15:18:48.692Z,21.43
2018-07-25T15:21:15.983Z,21.38
2018-07-25T15:23:54.402Z,21.44
2018-07-25T15:26:21.509Z,21.45
2018-07-25T15:28:48.618Z,21.35
2018-07-25T15:31:15.695Z,21.26
2018-07-25T15:33:43.097Z,21.21
2018-07-25T15:36:20.180Z,21.20
2018-07-25T15:38:47.215Z,21.09
2018-07-25T15:41:14.274Z,21.13
2018-07-25T15:43:41.413Z,21.18
2018-07-25T15:46:08.491Z,21.18
2018-07-25T15:48:35.955Z,21.24
2018-07-25T15:51:03.092Z,21.29
2018-07-25T15:53:30.140Z,21.31
2018-07-25T15:55:58.660Z,21.30
2018-07-25T15:58:26.578Z,21.43
2018-07-25T16:00:53.623Z,21.47
2018-07-25T16:03:20.988Z,21.49
2018-07-25T16:05:48.045Z,21.42
2018-07-25T16:08:15.165Z,21.45
2018-07-25T16:10:42.738Z,21.49
2018-07-25T16:13:10.069Z,21.59
2018-07-25T16:15:37.123Z,21.60
2018-07-25T16:18:05.964Z,21.60
2018-07-25T16:20:32.993Z,21.50
2018-07-25T16:23:00.020Z,21.49
2018-07-25T16:25:27.298Z,21.59
2018-07-25T16:27:54.336Z,21.65
2018-07-25T16:30:21.361Z,21.68
2018-07-25T16:32:48.401Z,21.78
2018-07-25T16:35:15.421Z,21.75
2018-07-25T16:37:42.570Z,21.67
2018-07-25T16:40:09.621Z,21.72
2018-07-25T16:42:36.968Z,21.68
2018-07-25T16:45:04.374Z,21.71
2018-07-25T16:47:31.639Z,21.67
2018-07-25T16:49:59.024Z,21.79
2018-07-25T16:52:26.073Z,21.67
2018-07-25T16:54:53.314Z,21.69
2018-07-25T16:57:20.592Z,21.75
2018-07-25T16:59:47.898Z,21.76
2018-07-25T17:02:15.232Z,21.77
2018-07-25T17:04:42.545Z,21.82
2018-07-25T17:07:10.347Z,21.88
2018-07-25T17:09:37.628Z,21.81
2018-07-25T17:12:04.945Z,21.91
2018-07-25T17:14:32.301Z,21.97
2018-07-25T17:16:59.280Z,22.04
2018-07-25T17:19:26.701Z,22.09
2018-07-25T17:21:53.801Z,22.11
2018-07-25T17:24:21.552Z,22.17
2018-07-25T17:26:48.885Z,22.18
2018-07-25T17:29:16.004Z,22.16
2018-07-25T17:31:43.356Z,22.09
2018-07-25T17:34:10.670Z,22.08
2018-07-25T17:36:37.720Z,22.04
2018-07-25T17:39:07.644Z,22.08
2018-07-25T17:41:34.946Z,22.08
2018-07-25T17:44:02.036Z,22.15
2018-07-25T17:46:29.152Z,22.17
2018-07-25T17:48:56.368Z,22.21
2018-07-25T17:51:23.655Z,22.15
2018-07-25T17:53:50.937Z,22.18
2018-07-25T17:56:18.097Z,22.25
2018-07-25T17:58:45.641Z,22.26
2018-07-25T18:01:12.794Z,22.33
2018-07-25T18:03:40.017Z,22.31
2018-07-25T18:06:07.121Z,22.35
2018-07-25T18:08:34.273Z,22.41
2018-07-25T18:11:01.472Z,22.43
2018-07-25T18:13:34.125Z,22.47
2018-07-25T18:16:01.157Z,22.59
2018-07-25T18:18:28.333Z,22.67
2018-07-25T18:20:55.515Z,22.76
2018-07-25T18:23:22.649Z,22.77
2018-07-25T18:25:49.769Z,22.74
2018-07-25T18:28:17.549Z,22.76
2018-07-25T18:30:44.665Z,22.73
2018-07-25T18:33:11.755Z,22.76
2018-07-25T18:35:38.788Z,22.79
2018-07-25T18:38:06.028Z,22.78
2018-07-25T18:40:33.101Z,22.84
2018-07-25T18:43:00.386Z,22.88
2018-07-25T18:45:27.501Z,22.91
2018-07-25T18:47:54.766Z,22.90
2018-07-25T18:50:21.939Z,22.96
2018-07-25T18:52:49.436Z,22.98
2018-07-25T18:55:16.542Z,23.05
2018-07-25T18:57:43.593Z,22.99
2018-07-25T19:00:10.914Z,22.90
2018-07-25T19:02:38.321Z,22.82
2018-07-25T19:05:05.451Z,22.89
2018-07-25T19:07:32.552Z,22.91
2018-07-25T19:10:00.153Z,22.86
2018-07-25T19:12:27.316Z,22.78
2018-07-25T19:15:00.184Z,22.70
2018-07-25T19:17:27.323Z,22.67
2018-07-25T19:19:54.389Z,22.68
2018-07-25T19:22:21.494Z,22.63
2018-07-25T19:24:48.552Z,22.55
2018-07-25T19:27:15.567Z,22.52
2018-07-25T19:29:42.680Z,22.40
2018-07-25T19:32:09.748Z,22.47
2018-07-25T19:34:36.768Z,22.53
2018-07-25T19:37:03.953Z,22.49
2018-07-25T19:39:36.459Z,22.45
2018-07-25T19:42:04.519Z,22.45
2018-07-25T19:44:31.981Z,22.36
2018-07-25T19:46:59.171Z,22.37
2018-07-25T19:49:26.275Z,22.28
2018-07-25T19:51:53.278Z,22.20
2018-07-25T19:54:20.313Z,22.18
2018-07-25T19:56:50.616Z,22.21
2018-07-25T19:59:17.701Z,22.20
2018-07-25T20:01:44.952Z,22.13
2018-07-25T20:04:12.068Z,22.07
2018-07-25T20:06:39.072Z,22.07
2018-07-25T20:09:07.124Z,22.02
2018-07-25T20:11:34.233Z,22.00
2018-07-25T20:14:07.391Z,21.97
2018-07-25T20:16:34.434Z,21.89
2018-07-25T20:19:01.773Z,21.93
2018-07-25T20:21:28.867Z,21.90
2018-07-25T20:23:56.252Z,21.90
2018-07-25T20:26:23.202Z,21.91
2018-07-25T20:28:50.250Z,21.88
2018-07-25T20:31:17.286Z,21.90
2018-07-25T20:33:44.445Z,21.88
2018-07-25T20:36:11.442Z,21.87
2018-07-25T20:38:38.756Z,21.85
2018-07-25T20:41:05.793Z,21.82
2018-07-25T20:43:32.798Z,21.80
2018-07-25T20:46:00.962Z,21.79
2018-07-25T20:48:28.129Z,21.76
2018-07-25T20:50:55.134Z,21.71
2018-07-25T20:53:22.962Z,21.63
2018-07-25T20:55:50.188Z,21.66
2018-07-25T20:58:17.177Z,21.58
2018-07-25T21:00:44.894Z,21.59
2018-07-25T21:03:11.929Z,21.65
2018-07-25T21:05:38.962Z,21.58
2018-07-25T21:08:05.977Z,21.55
2018-07-25T21:10:33.001Z,21.52
2018-07-25T21:13:00.032Z,21.53
2018-07-25T21:15:27.009Z,21.52
2018-07-25T21:17:54.020Z,21.53
2018-07-25T21:20:21.443Z,21.52
2018-07-25T21:22:49.074Z,21.52
2018-07-25T21:25:16.209Z,21.47
2018-07-25T21:27:43.226Z,21.46
2018-07-25T21:30:10.262Z,21.44
2018-07-25T21:32:37.563Z,21.38
2018-07-25T21:35:04.687Z,21.42
2018-07-25T21:37:31.836Z,21.38
2018-07-25T21:39:58.876Z,21.34
2018-07-25T21:42:26.201Z,21.33
2018-07-25T21:44:53.417Z,21.23
2018-07-25T21:47:20.500Z,21.17
2018-07-25T21:49:47.908Z,21.14
2018-07-25T21:52:14.996Z,21.07
2018-07-25T21:54:42.000Z,21.04
2018-07-25T21:57:09.629Z,21.00
2018-07-25T21:59:37.156Z,21.03
2018-07-25T22:02:04.227Z,21.00
2018-07-25T22:04:31.464Z,20.99
2018-07-25T22:06:58.468Z,21.07
2018-07-25T22:09:25.583Z,21.13
2018-07-25T22:11:52.656Z,21.15
2018-07-25T22:14:20.002Z,21.06
2018-07-25T22:16:47.039Z,21.08
2018-07-25T22:19:14.124Z,21.12
2018-07-25T22:21:41.326Z,21.08
2018-07-25T22:24:08.640Z,21.00
2018-07-25T22:26:35.776Z,21.01
2018-07-25T22:29:02.861Z,21.03
2018-07-25T22:31:30.254Z,20.99
2018-07-25T22:33:57.340Z,21.00
2018-07-25T22:36:24.338Z,20.97
2018-07-25T22:38:51.499Z,21.02
2018-07-25T22:41:18.565Z,21.03
2018-07-25T22:43:45.637Z,20.93
2018-07-25T22:46:12.744Z,20.89
2018-07-25T22:48:39.956Z,20.90
2018-07-25T22:51:06.972Z,20.88
2018-07-25T22:53:34.192Z,20.93
2018-07-25T22:56:01.251Z,20.95
2018-07-25T22:58:28.472Z,20.97
2018-07-25T23:00:55.928Z,21.00
2018-07-25T23:03:23.421Z,20.99
2018-07-25T23:05:50.462Z,20.89
2018-07-25T23:08:17.579Z,20.89
2018-07-25T23:10:44.575Z,21.10
2018-07-25T23:13:11.588Z,20.95
2018-07-25T23:18:12.017Z,21.10
2018-07-25T23:20:39.021Z,21.04
2018-07-25T23:23:06.020Z,20.84
2018-07-25T23:28:07.247Z,20.76
2018-07-25T23:30:34.329Z,20.78
2018-07-25T23:33:01.617Z,20.77
2018-07-25T23:35:28.644Z,20.80
2018-07-25T23:37:55.631Z,20.83
2018-07-25T23:40:23.070Z,20.79
2018-07-25T23:42:50.160Z,20.74
2018-07-25T23:45:17.483Z,20.72
2018-07-25T23:47:44.525Z,20.71
2018-07-25T23:50:11.826Z,20.69
2018-07-25T23:52:39.323Z,20.70
2018-07-25T23:55:06.837Z,20.59
2018-07-25T23:57:33.838Z,20.59
